createdAt,value
2022-08-30T00:01:23.418Z,17.03
2022-08-30T00:03:55.403Z,17.02
2022-08-30T00:06:26.131Z,17.02
2022-08-30T00:08:56.161Z,16.98
2022-08-30T00:11:28.582Z,16.96
2022-08-30T00:14:01.313Z,16.92
2022-08-30T00:16:31.282Z,16.91
2022-08-30T00:19:02.537Z,16.89
2022-08-30T00:21:33.075Z,16.83
2022-08-30T00:24:05.223Z,16.83
2022-08-30T00:26:37.088Z,16.80
2022-08-30T00:29:10.680Z,16.77
2022-08-30T00:31:41.122Z,16.72
2022-08-30T00:34:11.128Z,16.67
2022-08-30T00:36:41.019Z,16.66
2022-08-30T00:39:11.078Z,16.64
2022-08-30T00:41:45.015Z,16.65
2022-08-30T00:44:17.916Z,16.65
2022-08-30T00:46:49.442Z,16.58
2022-08-30T00:49:19.557Z,16.60
2022-08-30T00:51:49.615Z,16.56
2022-08-30T00:54:20.619Z,16.56
2022-08-30T00:56:52.098Z,16.57
2022-08-30T00:59:27.745Z,16.54
2022-08-30T01:01:59.171Z,16.53
2022-08-30T01:04:30.122Z,16.53
2022-08-30T01:07:00.533Z,16.54
2022-08-30T01:09:30.848Z,16.55
2022-08-30T01:12:01.520Z,16.55
2022-08-30T01:14:35.175Z,16.48
2022-08-30T01:17:05.905Z,16.50
2022-08-30T01:19:44.192Z,16.40
2022-08-30T01:22:27.048Z,16.40
2022-08-30T01:25:02.687Z,16.36
2022-08-30T01:27:34.869Z,16.35
2022-08-30T01:30:05.796Z,16.39
2022-08-30T01:32:43.293Z,16.39
2022-08-30T01:35:15.618Z,16.48
2022-08-30T01:37:47.523Z,16.53
2022-08-30T01:40:21.474Z,16.56
2022-08-30T01:42:52.777Z,16.56
2022-08-30T01:45:22.739Z,16.55
2022-08-30T01:47:52.462Z,16.54
2022-08-30T01:50:22.438Z,16.54
2022-08-30T01:52:52.757Z,16.62
2022-08-30T01:55:27.410Z,16.58
2022-08-30T01:57:58.635Z,16.44
2022-08-30T02:00:28.516Z,16.45
2022-08-30T02:02:59.008Z,16.45
2022-08-30T02:05:29.782Z,16.41
2022-08-30T02:07:59.664Z,16.48
2022-08-30T02:10:33.585Z,16.55
2022-08-30T02:13:03.375Z,16.56
2022-08-30T02:15:41.750Z,16.55
2022-08-30T02:18:12.270Z,16.29
2022-08-30T02:20:42.989Z,16.33
2022-08-30T02:23:12.989Z,16.40
2022-08-30T02:25:45.989Z,16.48
2022-08-30T02:28:20.333Z,16.47
2022-08-30T02:30:50.943Z,16.36
2022-08-30T02:33:22.042Z,16.42
2022-08-30T02:35:51.749Z,16.39
2022-08-30T02:38:21.765Z,16.32
2022-08-30T02:40:54.129Z,16.36
2022-08-30T02:43:24.298Z,16.39
2022-08-30T02:45:56.475Z,16.39
2022-08-30T02:48:27.403Z,16.46
2022-08-30T02:50:57.372Z,16.48
2022-08-30T02:53:29.301Z,16.46
2022-08-30T02:56:02.738Z,16.40
2022-08-30T02:58:36.259Z,16.32
2022-08-30T03:01:06.302Z,16.36
2022-08-30T03:03:36.599Z,16.40
2022-08-30T03:06:06.597Z,16.37
2022-08-30T03:08:39.701Z,16.36
2022-08-30T03:11:13.986Z,16.32
2022-08-30T03:13:45.556Z,16.28
2022-08-30T03:16:15.215Z,16.28
2022-08-30T03:18:45.172Z,16.27
2022-08-30T03:21:18.760Z,16.27
2022-08-30T03:23:49.209Z,16.24
2022-08-30T03:26:22.208Z,16.27
2022-08-30T03:28:51.908Z,16.16
2022-08-30T03:31:21.845Z,16.12
2022-08-30T03:33:52.056Z,16.14
2022-08-30T03:36:22.382Z,16.16
2022-08-30T03:38:52.414Z,16.12
2022-08-30T03:41:25.454Z,16.01
2022-08-30T03:44:00.212Z,16.07
2022-08-30T03:46:37.502Z,16.05
2022-08-30T03:49:07.905Z,15.98
2022-08-30T03:51:39.466Z,15.98
2022-08-30T03:54:10.059Z,15.92
2022-08-30T03:56:42.692Z,15.83
2022-08-30T03:59:13.277Z,15.76
2022-08-30T04:01:48.106Z,15.66
2022-08-30T04:04:21.198Z,15.55
2022-08-30T04:06:51.940Z,15.54
2022-08-30T04:09:22.306Z,15.45
2022-08-30T04:11:55.074Z,15.26
2022-08-30T04:14:25.077Z,15.34
2022-08-30T04:17:01.248Z,15.25
2022-08-30T04:19:31.419Z,15.24
2022-08-30T04:22:01.495Z,15.18
2022-08-30T04:24:31.711Z,15.12
2022-08-30T04:27:05.650Z,15.12
2022-08-30T04:29:36.799Z,15.17
2022-08-30T04:32:07.589Z,15.16
2022-08-30T04:34:37.976Z,15.22
2022-08-30T04:37:10.030Z,15.23
2022-08-30T04:39:43.703Z,15.13
2022-08-30T04:42:17.382Z,15.22
2022-08-30T04:44:50.649Z,15.14
2022-08-30T04:47:22.688Z,15.12
2022-08-30T04:49:52.883Z,15.05
2022-08-30T04:52:23.111Z,15.03
2022-08-30T04:55:01.732Z,15.09
2022-08-30T04:57:38.292Z,15.09
2022-08-30T05:00:12.066Z,14.92
2022-08-30T05:02:45.475Z,14.95
2022-08-30T05:05:28.476Z,14.81
2022-08-30T05:07:58.542Z,14.88
2022-08-30T05:10:29.848Z,14.98
2022-08-30T05:13:02.443Z,15.04
2022-08-30T05:15:32.544Z,15.15
2022-08-30T05:18:02.542Z,15.21
2022-08-30T05:20:32.391Z,15.13
2022-08-30T05:23:02.418Z,15.19
2022-08-30T05:25:36.026Z,15.12
2022-08-30T05:28:09.256Z,14.99
2022-08-30T05:30:40.525Z,15.02
2022-08-30T05:33:10.536Z,15.19
2022-08-30T05:35:43.505Z,15.21
2022-08-30T05:38:16.064Z,15.25
2022-08-30T05:40:46.952Z,15.12
2022-08-30T05:43:19.580Z,15.17
2022-08-30T05:45:49.412Z,15.25
2022-08-30T05:48:20.798Z,15.33
2022-08-30T05:50:50.732Z,15.34
2022-08-30T05:53:20.455Z,15.45
2022-08-30T05:55:50.231Z,15.55
2022-08-30T05:58:22.654Z,15.66
2022-08-30T06:00:52.606Z,15.58
2022-08-30T06:03:22.563Z,15.53
2022-08-30T06:05:52.310Z,15.54
2022-08-30T06:08:22.363Z,15.59
2022-08-30T06:10:52.696Z,15.53
2022-08-30T06:13:25.159Z,15.52
2022-08-30T06:15:55.209Z,15.55
2022-08-30T06:18:28.509Z,15.73
2022-08-30T06:20:58.617Z,15.76
2022-08-30T06:23:29.199Z,15.83
2022-08-30T06:25:59.275Z,15.96
2022-08-30T06:28:33.980Z,16.00
2022-08-30T06:31:03.826Z,16.14
2022-08-30T06:33:33.915Z,16.19
2022-08-30T06:36:06.520Z,16.27
2022-08-30T06:38:37.125Z,16.41
2022-08-30T06:41:09.368Z,16.44
2022-08-30T06:43:48.152Z,16.62
2022-08-30T06:46:21.300Z,16.70
2022-08-30T06:48:53.421Z,16.67
2022-08-30T06:51:29.828Z,16.71
2022-08-30T06:54:00.084Z,16.78
2022-08-30T06:56:31.231Z,16.91
2022-08-30T06:59:04.297Z,16.99
2022-08-30T07:01:34.543Z,17.06
2022-08-30T07:04:04.904Z,17.20
2022-08-30T07:06:36.119Z,17.40
2022-08-30T07:09:06.608Z,17.48
2022-08-30T07:11:41.304Z,17.58
2022-08-30T07:14:14.626Z,17.71
2022-08-30T07:16:44.481Z,17.95
2022-08-30T07:19:20.783Z,18.12
2022-08-30T07:21:51.921Z,18.19
2022-08-30T07:24:22.924Z,18.26
2022-08-30T07:26:54.498Z,18.33
2022-08-30T07:29:27.162Z,18.54
2022-08-30T07:31:57.375Z,18.57
2022-08-30T07:34:27.600Z,18.43
2022-08-30T07:36:57.523Z,18.58
2022-08-30T07:39:27.330Z,18.61
2022-08-30T07:42:02.480Z,18.92
2022-08-30T07:44:36.051Z,18.89
2022-08-30T07:47:05.917Z,18.91
2022-08-30T07:49:37.094Z,18.78
2022-08-30T07:52:07.485Z,18.85
2022-08-30T07:54:43.302Z,19.18
2022-08-30T07:57:16.017Z,19.22
2022-08-30T07:59:49.725Z,19.25
2022-08-30T08:02:19.594Z,19.06
2022-08-30T08:04:51.952Z,19.08
2022-08-30T08:07:29.889Z,18.77
2022-08-30T08:10:01.294Z,18.79
2022-08-30T08:12:31.289Z,18.70
2022-08-30T08:15:08.268Z,18.84
2022-08-30T08:17:39.063Z,18.69
2022-08-30T08:20:09.883Z,18.75
2022-08-30T08:22:40.351Z,18.78
2022-08-30T08:25:11.296Z,18.53
2022-08-30T08:27:40.942Z,18.47
2022-08-30T08:30:14.647Z,18.51
2022-08-30T08:32:46.778Z,18.50
2022-08-30T08:35:17.493Z,18.43
2022-08-30T08:37:47.233Z,18.59
2022-08-30T08:40:19.961Z,18.51
2022-08-30T08:43:00.401Z,18.45
2022-08-30T08:45:44.862Z,18.52
2022-08-30T08:48:22.868Z,18.22
2022-08-30T08:51:05.203Z,18.31
2022-08-30T08:53:46.901Z,18.59
2022-08-30T08:56:19.170Z,18.60
2022-08-30T08:58:53.700Z,18.49
2022-08-30T09:01:30.135Z,18.75
2022-08-30T09:04:03.412Z,18.92
2022-08-30T09:06:49.186Z,19.20
2022-08-30T09:09:22.539Z,19.34
2022-08-30T09:11:52.735Z,19.43
2022-08-30T09:14:30.152Z,19.44
2022-08-30T09:17:06.613Z,19.29
2022-08-30T09:19:43.170Z,19.33
2022-08-30T09:22:23.604Z,19.39
2022-08-30T09:24:55.509Z,19.36
2022-08-30T09:27:30.428Z,19.42
2022-08-30T09:30:14.185Z,19.67
2022-08-30T09:32:55.245Z,19.95
2022-08-30T09:35:28.885Z,20.46
2022-08-30T09:38:01.056Z,20.48
2022-08-30T09:40:38.718Z,20.59
2022-08-30T09:43:11.880Z,21.64
2022-08-30T09:45:45.246Z,21.82
2022-08-30T09:48:33.164Z,24.16
2022-08-30T09:51:41.888Z,25.58
2022-08-30T09:54:22.702Z,26.29
2022-08-30T09:57:05.538Z,26.97
2022-08-30T09:59:55.727Z,27.66
2022-08-30T10:02:40.883Z,27.92
2022-08-30T10:05:20.564Z,28.05
2022-08-30T10:08:01.763Z,27.31
2022-08-30T10:10:37.925Z,27.52
2022-08-30T10:13:24.111Z,27.95
2022-08-30T10:16:00.959Z,29.10
2022-08-30T10:18:36.808Z,29.16
2022-08-30T10:24:10.937Z,30.51
2022-08-30T10:26:52.123Z,28.97
2022-08-30T10:29:29.964Z,28.81
2022-08-30T10:32:08.665Z,29.83
2022-08-30T10:34:42.268Z,30.04
2022-08-30T10:37:20.903Z,31.00
2022-08-30T10:39:56.439Z,30.39
2022-08-30T10:42:30.044Z,32.04
2022-08-30T10:45:05.826Z,29.54
2022-08-30T10:47:44.286Z,31.07
2022-08-30T10:50:19.599Z,31.46
2022-08-30T10:52:57.695Z,32.00
2022-08-30T10:55:31.295Z,32.22
2022-08-30T10:58:03.395Z,31.38
2022-08-30T11:00:41.269Z,30.05
2022-08-30T11:03:48.572Z,30.81
2022-08-30T11:06:29.341Z,30.35
2022-08-30T11:09:28.222Z,32.50
2022-08-30T11:12:22.539Z,30.94
2022-08-30T11:14:55.398Z,29.17
2022-08-30T11:17:30.387Z,29.91
2022-08-30T11:20:03.340Z,30.28
2022-08-30T11:22:38.998Z,30.71
2022-08-30T11:25:14.945Z,31.21
2022-08-30T11:27:48.851Z,30.91
2022-08-30T11:30:52.231Z,30.27
2022-08-30T11:33:45.570Z,31.40
2022-08-30T11:36:53.448Z,32.10
2022-08-30T11:40:07.306Z,32.65
2022-08-30T11:42:49.248Z,32.65
2022-08-30T11:45:52.641Z,31.27
2022-08-30T11:48:55.422Z,31.70
2022-08-30T11:51:43.734Z,31.84
2022-08-30T11:54:24.633Z,31.65
2022-08-30T11:57:05.554Z,32.61
2022-08-30T11:59:50.499Z,31.17
2022-08-30T12:02:50.478Z,31.96
2022-08-30T12:05:51.739Z,30.84
2022-08-30T12:09:02.717Z,31.84
2022-08-30T12:12:10.675Z,31.41
2022-08-30T12:14:58.331Z,31.89
2022-08-30T12:17:48.431Z,30.89
2022-08-30T12:20:30.318Z,31.75
2022-08-30T12:23:19.733Z,30.74
2022-08-30T12:25:51.831Z,31.13
2022-08-30T12:28:26.707Z,30.48
2022-08-30T12:31:12.903Z,31.12
2022-08-30T12:33:48.084Z,30.06
2022-08-30T12:36:40.282Z,30.08
2022-08-30T12:39:17.692Z,31.38
2022-08-30T12:41:49.598Z,31.62
2022-08-30T12:44:24.570Z,31.80
2022-08-30T12:47:03.895Z,31.50
2022-08-30T12:49:39.358Z,30.26
2022-08-30T12:52:23.334Z,31.34
2022-08-30T12:54:54.108Z,31.35
2022-08-30T12:57:40.935Z,31.16
2022-08-30T13:00:14.702Z,31.38
2022-08-30T13:02:52.797Z,31.92
2022-08-30T13:05:52.742Z,31.71
2022-08-30T13:08:27.839Z,30.56
2022-08-30T13:11:08.333Z,31.64
2022-08-30T13:13:44.738Z,30.82
2022-08-30T13:16:29.460Z,30.46
2022-08-30T13:19:29.778Z,30.24
2022-08-30T13:22:02.284Z,30.20
2022-08-30T13:24:32.797Z,29.73
2022-08-30T13:27:11.559Z,29.41
2022-08-30T13:29:41.365Z,29.59
2022-08-30T13:32:13.934Z,29.53
2022-08-30T13:34:47.609Z,29.74
2022-08-30T13:40:14.067Z,28.14
2022-08-30T13:42:44.408Z,27.34
2022-08-30T13:48:06.415Z,27.56
2022-08-30T13:50:39.159Z,27.62
2022-08-30T13:53:09.428Z,28.47
2022-08-30T13:55:40.782Z,29.39
2022-08-30T13:58:13.760Z,28.94
2022-08-30T14:00:43.939Z,29.74
2022-08-30T14:03:13.634Z,30.43
2022-08-30T14:05:49.213Z,30.49
2022-08-30T14:14:43.305Z,30.35
2022-08-30T14:17:14.166Z,30.45
2022-08-30T14:19:43.942Z,30.78
2022-08-30T14:22:19.989Z,30.68
2022-08-30T14:24:49.854Z,30.49
2022-08-30T14:27:19.661Z,29.59
2022-08-30T14:29:52.702Z,29.89
2022-08-30T14:32:25.486Z,28.62
2022-08-30T14:34:58.162Z,28.91
2022-08-30T14:37:31.971Z,29.47
2022-08-30T14:40:03.057Z,29.17
2022-08-30T14:42:33.062Z,30.04
2022-08-30T14:45:04.641Z,29.73
2022-08-30T14:47:34.559Z,29.72
2022-08-30T14:50:05.805Z,29.44
2022-08-30T14:52:39.529Z,29.77
2022-08-30T14:55:13.059Z,29.91
2022-08-30T14:57:43.364Z,29.88
2022-08-30T15:00:16.233Z,29.74
2022-08-30T15:02:47.805Z,29.82
2022-08-30T15:05:20.057Z,28.56
2022-08-30T15:07:54.682Z,28.34
2022-08-30T15:10:27.751Z,27.68
2022-08-30T15:12:57.616Z,27.64
2022-08-30T15:15:27.800Z,28.09
2022-08-30T15:17:57.654Z,28.66
2022-08-30T15:20:27.956Z,28.24
2022-08-30T15:23:00.480Z,28.76
2022-08-30T15:25:30.937Z,28.96
2022-08-30T15:28:01.105Z,29.25
2022-08-30T15:30:31.066Z,29.45
2022-08-30T15:33:03.136Z,28.57
2022-08-30T15:35:33.055Z,29.40
2022-08-30T15:38:05.800Z,29.58
2022-08-30T15:40:35.766Z,29.21
2022-08-30T15:43:05.852Z,29.25
2022-08-30T15:45:35.852Z,28.53
2022-08-30T15:48:06.722Z,27.84
2022-08-30T15:50:36.975Z,27.42
2022-08-30T15:53:10.708Z,27.23
2022-08-30T15:55:41.140Z,27.19
2022-08-30T15:58:11.428Z,26.62
2022-08-30T16:00:44.887Z,26.44
2022-08-30T16:03:15.314Z,26.12
2022-08-30T16:05:45.428Z,25.58
2022-08-30T16:08:19.386Z,25.65
2022-08-30T16:10:51.929Z,25.59
2022-08-30T16:13:21.928Z,25.59
2022-08-30T16:15:54.811Z,25.07
2022-08-30T16:18:24.735Z,25.16
2022-08-30T16:21:08.898Z,25.12
2022-08-30T16:23:44.278Z,25.12
2022-08-30T16:26:18.336Z,25.06
2022-08-30T16:28:48.805Z,24.87
2022-08-30T16:31:20.402Z,24.91
2022-08-30T16:33:52.664Z,24.77
2022-08-30T16:36:23.258Z,24.79
2022-08-30T16:38:58.316Z,24.64
2022-08-30T16:41:29.711Z,24.55
2022-08-30T16:44:06.085Z,24.38
2022-08-30T16:46:42.856Z,24.18
2022-08-30T16:49:14.071Z,23.93
2022-08-30T16:51:44.753Z,23.81
2022-08-30T16:54:17.696Z,23.77
2022-08-30T16:56:47.479Z,23.71
2022-08-30T16:59:18.952Z,23.57
2022-08-30T17:01:49.253Z,23.55
2022-08-30T17:04:19.910Z,23.45
2022-08-30T17:06:50.822Z,23.42
2022-08-30T17:09:23.584Z,23.40
2022-08-30T17:11:57.527Z,23.28
2022-08-30T17:14:29.468Z,23.26
2022-08-30T17:17:00.438Z,23.09
2022-08-30T17:19:30.858Z,23.10
2022-08-30T17:22:01.311Z,23.09
2022-08-30T17:24:38.489Z,23.08
2022-08-30T17:27:10.776Z,23.02
2022-08-30T17:29:43.638Z,22.97
2022-08-30T17:32:13.648Z,22.96
2022-08-30T17:34:44.691Z,22.82
2022-08-30T17:37:20.047Z,22.77
2022-08-30T17:39:53.476Z,22.74
2022-08-30T17:42:23.230Z,22.63
2022-08-30T17:45:06.685Z,22.43
2022-08-30T17:47:37.216Z,22.39
2022-08-30T17:50:08.131Z,22.36
2022-08-30T17:55:44.005Z,22.29
2022-08-30T17:58:17.138Z,22.21
2022-08-30T18:00:54.342Z,22.08
2022-08-30T18:03:25.630Z,21.98
2022-08-30T18:05:58.594Z,21.97
2022-08-30T18:08:30.157Z,21.84
2022-08-30T18:11:08.169Z,21.84
2022-08-30T18:13:41.332Z,21.64
2022-08-30T18:16:11.915Z,21.76
2022-08-30T18:18:44.055Z,21.53
2022-08-30T18:21:16.753Z,21.61
2022-08-30T18:23:51.301Z,21.38
2022-08-30T18:26:28.025Z,21.50
2022-08-30T18:28:59.782Z,21.32
2022-08-30T18:31:33.941Z,21.30
2022-08-30T18:34:03.995Z,21.25
2022-08-30T18:36:34.270Z,21.30
2022-08-30T18:39:04.351Z,21.16
2022-08-30T18:41:41.602Z,21.11
2022-08-30T18:44:27.125Z,21.04
2022-08-30T18:47:32.128Z,21.01
2022-08-30T18:49:57.055Z,21.01
2022-08-30T18:52:28.932Z,20.98
2022-08-30T18:55:08.160Z,20.91
2022-08-30T18:58:30.477Z,20.92
2022-08-30T19:01:26.417Z,20.65
2022-08-30T19:04:22.483Z,20.62
2022-08-30T19:07:42.776Z,20.70
2022-08-30T19:10:16.653Z,20.62
2022-08-30T19:12:52.965Z,20.50
2022-08-30T19:15:27.861Z,20.49
2022-08-30T19:17:58.076Z,20.50
2022-08-30T19:20:32.149Z,20.48
2022-08-30T19:23:09.559Z,20.41
2022-08-30T19:25:40.413Z,20.43
2022-08-30T19:28:10.429Z,20.39
2022-08-30T19:30:43.733Z,20.38
2022-08-30T19:33:13.559Z,20.15
2022-08-30T19:39:17.790Z,19.98
2022-08-30T19:41:55.163Z,20.00
2022-08-30T19:44:36.437Z,20.04
2022-08-30T19:47:34.370Z,19.96
2022-08-30T19:50:39.987Z,19.92
2022-08-30T19:53:14.308Z,19.86
2022-08-30T19:56:03.908Z,19.79
2022-08-30T19:58:43.591Z,19.78
2022-08-30T20:01:33.570Z,19.74
2022-08-30T20:05:10.934Z,19.80
2022-08-30T20:15:14.038Z,19.62
2022-08-30T20:18:22.011Z,19.67
2022-08-30T20:21:36.847Z,19.46
2022-08-30T20:24:17.571Z,19.47
2022-08-30T20:27:12.971Z,19.44
2022-08-30T20:29:55.075Z,19.38
2022-08-30T20:32:53.737Z,19.52
2022-08-30T20:35:27.030Z,19.58
2022-08-30T20:38:08.024Z,19.45
2022-08-30T20:40:53.182Z,19.46
2022-08-30T20:43:30.678Z,19.49
2022-08-30T20:46:14.835Z,19.48
2022-08-30T20:48:49.564Z,19.47
2022-08-30T20:51:23.428Z,19.53
2022-08-30T20:53:56.004Z,19.52
2022-08-30T20:56:30.109Z,19.55
2022-08-30T20:59:02.215Z,19.51
2022-08-30T21:01:34.425Z,19.49
2022-08-30T21:04:06.286Z,19.55
2022-08-30T21:06:53.407Z,19.40
2022-08-30T21:09:44.643Z,19.26
2022-08-30T21:12:21.499Z,19.26
2022-08-30T21:15:15.600Z,19.30
2022-08-30T21:18:08.927Z,19.17
2022-08-30T21:20:42.010Z,19.16
2022-08-30T21:23:12.841Z,19.18
2022-08-30T21:25:44.108Z,19.22
2022-08-30T21:28:17.227Z,19.05
2022-08-30T21:30:47.892Z,19.10
2022-08-30T21:33:20.733Z,19.11
2022-08-30T21:36:02.765Z,19.06
2022-08-30T21:38:32.671Z,19.02
2022-08-30T21:41:03.796Z,19.06
2022-08-30T21:43:36.424Z,19.05
2022-08-30T21:46:08.960Z,19.00
2022-08-30T21:48:39.758Z,19.01
2022-08-30T21:51:10.688Z,18.99
2022-08-30T21:53:43.640Z,18.96
2022-08-30T21:56:20.785Z,18.91
2022-08-30T21:58:58.319Z,18.89
2022-08-30T22:01:30.303Z,18.87
2022-08-30T22:04:02.280Z,18.78
2022-08-30T22:06:33.981Z,18.69
2022-08-30T22:09:07.976Z,18.71
2022-08-30T22:11:45.275Z,18.74
2022-08-30T22:14:19.300Z,18.77
2022-08-30T22:16:51.889Z,18.87
2022-08-30T22:19:23.479Z,18.86
2022-08-30T22:22:01.065Z,18.91
2022-08-30T22:24:32.741Z,18.87
2022-08-30T22:27:09.639Z,18.77
2022-08-30T22:29:42.623Z,18.64
2022-08-30T22:32:12.884Z,18.51
2022-08-30T22:34:42.839Z,18.57
2022-08-30T22:37:15.358Z,18.54
2022-08-30T22:39:45.334Z,18.54
2022-08-30T22:42:16.184Z,18.45
2022-08-30T22:44:54.577Z,18.35
2022-08-30T22:47:26.694Z,18.27
2022-08-30T22:49:58.977Z,18.10
2022-08-30T22:52:31.666Z,18.15
2022-08-30T22:55:01.423Z,18.12
2022-08-30T22:57:34.372Z,18.11
2022-08-30T23:00:12.164Z,18.11
2022-08-30T23:02:45.045Z,18.10
2022-08-30T23:05:15.860Z,18.13
2022-08-30T23:07:46.419Z,18.07
2022-08-30T23:10:19.551Z,18.06
2022-08-30T23:12:52.665Z,18.09
2022-08-30T23:15:25.333Z,18.09
2022-08-30T23:17:56.754Z,18.11
2022-08-30T23:20:29.992Z,18.14
2022-08-30T23:22:59.658Z,18.14
2022-08-30T23:25:45.005Z,18.15
2022-08-30T23:28:27.323Z,18.13
2022-08-30T23:31:12.187Z,18.14
2022-08-30T23:33:54.615Z,18.10
2022-08-30T23:36:38.202Z,17.99
2022-08-30T23:39:21.381Z,18.08
2022-08-30T23:42:06.173Z,18.08
2022-08-30T23:44:48.495Z,18.08
2022-08-30T23:47:33.287Z,18.06
2022-08-30T23:50:15.378Z,18.07
2022-08-30T23:52:57.783Z,18.08
2022-08-30T23:55:40.103Z,18.07
2022-08-30T23:58:22.641Z,18.08
